Time;durP1;ratioP1;P1;durP2;ratioP2;P2;SDS_P1;SDS_P2;PMS_P1;PMS_P2;Temp;Humidity;BMP_temperature;BMP_pressure;BME280_temperature;BME280_humidity;BME280_pressure;Samples;Min_cycle;Max_cycle;Signal;HPM_P1;HPM_P2
2021/12/01 00:00:52;;;;;;;2.90;2.70;;;;;;;3.17;100.00;95839.81;5074651;28;20462;-73
2021/12/01 00:03:19;;;;;;;3.00;2.80;;;;;;;3.17;100.00;95839.03;5091668;28;20497;-74
2021/12/01 00:05:49;;;;;;;3.17;2.97;;;;;;;3.01;100.00;95807.22;5091177;28;20575;-74
2021/12/01 00:08:16;;;;;;;2.40;2.30;;;;;;;3.07;100.00;95819.16;5074994;28;20463;-74
2021/12/01 00:10:44;;;;;;;2.57;2.37;;;;;;;3.18;100.00;95824.91;5093082;28;21283;-74
2021/12/01 00:13:14;;;;;;;2.63;2.43;;;;;;;3.16;100.00;95830.44;5075784;28;20495;-74
2021/12/01 00:15:43;;;;;;;1.87;1.77;;;;;;;3.12;100.00;95818.25;5075045;28;20423;-74
2021/12/01 00:18:30;;;;;;;1.80;1.70;;;;;;;2.96;100.00;95786.44;5092418;28;20442;-74
2021/12/01 00:20:57;;;;;;;1.93;1.83;;;;;;;3.21;100.00;95825.13;5031006;28;20512;-74
2021/12/01 00:23:25;;;;;;;2.20;2.10;;;;;;;3.23;100.00;95827.44;5013177;28;20453;-74
2021/12/01 00:25:53;;;;;;;2.70;2.50;;;;;;;3.25;100.00;95833.16;5029862;28;20441;-75
2021/12/01 00:28:20;;;;;;;2.73;2.50;;;;;;;3.13;100.00;95810.13;5029480;28;20466;-75
2021/12/01 00:30:47;;;;;;;3.80;3.50;;;;;;;3.10;100.00;95808.09;5029970;28;21031;-74
2021/12/01 00:33:17;;;;;;;2.67;2.47;;;;;;;3.22;100.00;95833.75;5029702;28;20437;-74
2021/12/01 00:35:45;;;;;;;3.67;2.73;;;;;;;3.09;100.00;95811.00;4997224;28;20957;-75
2021/12/01 00:38:14;;;;;;;1.90;1.80;;;;;;;3.09;100.00;95808.41;5030004;28;20444;-75
2021/12/01 00:40:41;;;;;;;1.60;1.50;;;;;;;3.02;100.00;95811.38;5029364;28;20465;-74
2021/12/01 00:43:15;;;;;;;2.13;1.93;;;;;;;3.00;100.00;95813.53;5029618;28;20480;-74
2021/12/01 00:46:09;;;;;;;2.10;1.97;;;;;;;2.95;100.00;95790.91;5029826;28;20476;-74
2021/12/01 00:48:36;;;;;;;1.67;1.57;;;;;;;3.12;100.00;95823.47;5029816;28;20433;-74
2021/12/01 00:51:03;;;;;;;2.27;1.60;;;;;;;3.14;100.00;95829.19;5029247;28;20519;-74
2021/12/01 00:53:30;;;;;;;1.17;1.10;;;;;;;2.84;100.00;95781.72;5029158;28;20433;-74
2021/12/01 00:55:57;;;;;;;1.33;1.23;;;;;;;3.00;100.00;95797.84;5013086;28;20430;-74
2021/12/01 00:58:24;;;;;;;1.40;1.30;;;;;;;3.14;100.00;95814.28;5060096;28;20435;-74
2021/12/01 01:00:51;;;;;;;1.43;1.33;;;;;;;3.02;100.00;95795.72;5073695;28;20459;-74
2021/12/01 01:03:18;;;;;;;2.70;1.23;;;;;;;2.94;100.00;95778.13;5073494;28;20950;-74
2021/12/01 01:05:47;;;;;;;1.30;1.20;;;;;;;3.14;100.00;95813.50;5091201;28;20516;-75
2021/12/01 01:08:15;;;;;;;1.03;1.00;;;;;;;2.90;100.00;95783.16;5091628;28;20494;-75
2021/12/01 01:18:47;;;;;;;1.20;1.10;;;;;;;2.97;100.00;95775.72;5091942;28;20582;-74
2021/12/01 01:21:15;;;;;;;1.63;1.53;;;;;;;3.09;100.00;95808.41;5073569;28;20608;-74
2021/12/01 01:23:42;;;;;;;1.30;1.10;;;;;;;3.10;100.00;95796.88;5073317;28;20435;-74
2021/12/01 01:26:13;;;;;;;1.30;1.20;;;;;;;3.10;100.00;95796.88;5091375;28;20427;-75
2021/12/01 01:28:41;;;;;;;1.40;1.30;;;;;;;3.21;100.00;95808.69;5091350;28;20451;-74
2021/12/01 01:31:09;;;;;;;1.20;1.10;;;;;;;3.23;100.00;95817.78;5073082;28;20469;-74
2021/12/01 01:33:36;;;;;;;2.70;1.87;;;;;;;3.23;100.00;95811.78;5090068;28;20432;-74
2021/12/01 01:36:03;;;;;;;1.50;1.40;;;;;;;3.25;100.00;95801.81;5056563;28;20435;-75
2021/12/01 01:38:32;;;;;;;1.70;1.57;;;;;;;3.27;100.00;95799.69;5073361;28;20427;-74
2021/12/01 01:41:04;;;;;;;1.60;1.50;;;;;;;3.07;100.00;95766.13;5095260;28;20458;-75
2021/12/01 01:43:32;;;;;;;1.83;1.73;;;;;;;3.04;100.00;95764.09;5095123;28;20940;-74
2021/12/01 01:45:58;;;;;;;1.07;0.97;;;;;;;3.30;100.00;95786.03;5076528;28;20442;-74
2021/12/01 01:48:33;;;;;;;2.00;1.90;;;;;;;3.31;100.00;95798.03;5060040;28;21049;-75
2021/12/01 01:51:03;;;;;;;1.47;1.37;;;;;;;3.33;100.00;95784.66;5076902;28;20454;-74
2021/12/01 01:53:31;;;;;;;1.10;1.00;;;;;;;3.35;100.00;95787.78;5076368;28;20458;-74
2021/12/01 01:56:01;;;;;;;1.37;1.10;;;;;;;3.12;100.00;95747.75;5076970;28;20427;-74
2021/12/01 01:58:29;;;;;;;1.00;1.00;;;;;;;3.12;100.00;95747.75;5093146;28;20942;-74
2021/12/01 02:01:08;;;;;;;1.03;1.03;;;;;;;3.26;100.00;95769.41;5095026;28;20447;-74
2021/12/01 02:03:47;;;;;;;0.87;0.87;;;;;;;3.19;100.00;95750.72;5059535;28;20427;-74
2021/12/01 02:06:22;;;;;;;1.23;0.93;;;;;;;3.30;100.00;95757.28;5095181;28;20415;-74
2021/12/01 02:08:51;;;;;;;0.70;0.70;;;;;;;3.45;100.00;95780.47;5093169;28;20504;-75
2021/12/01 02:11:20;;;;;;;1.10;1.00;;;;;;;3.47;100.00;95778.38;5076813;28;20497;-75
2021/12/01 02:13:48;;;;;;;0.70;0.70;;;;;;;3.19;100.00;95742.88;5076452;28;20440;-75
2021/12/01 02:16:16;;;;;;;1.00;0.90;;;;;;;3.41;100.00;95766.47;5094186;28;20428;-75
2021/12/01 02:18:43;;;;;;;0.90;0.90;;;;;;;3.42;100.00;95765.41;5059937;28;20954;-75
2021/12/01 02:21:11;;;;;;;0.93;0.93;;;;;;;3.48;100.00;95766.84;5092803;28;20459;-75
2021/12/01 02:23:41;;;;;;;0.70;0.70;;;;;;;3.49;100.00;95763.16;5094313;28;20488;-75
2021/12/01 02:26:08;;;;;;;0.70;0.70;;;;;;;3.47;100.00;95741.78;5076770;28;20416;-74
2021/12/01 02:28:36;;;;;;;0.90;0.90;;;;;;;3.52;100.00;95757.34;5093936;28;20488;-75
2021/12/01 02:31:03;;;;;;;1.03;0.80;;;;;;;3.49;100.00;95739.66;5093092;28;20463;-75
2021/12/01 02:33:31;;;;;;;0.70;0.67;;;;;;;3.25;100.00;95698.09;5059767;28;20489;-74
2021/12/01 02:35:57;;;;;;;0.70;0.70;;;;;;;3.38;100.00;95717.41;5059189;28;20927;-75
2021/12/01 02:38:25;;;;;;;0.90;0.90;;;;;;;3.50;100.00;95729.97;5075768;28;20428;-75
2021/12/01 02:40:54;;;;;;;0.87;0.87;;;;;;;3.55;100.00;95728.00;5075883;28;20809;-75
2021/12/01 02:43:24;;;;;;;0.70;0.70;;;;;;;3.38;100.00;95693.91;5075678;28;20930;-74
2021/12/01 02:45:54;;;;;;;0.80;0.80;;;;;;;3.40;100.00;95694.38;5075513;28;20489;-74
2021/12/01 02:48:22;;;;;;;0.70;0.70;;;;;;;3.56;100.00;95729.53;5059219;28;20517;-74
2021/12/01 02:50:50;;;;;;;0.70;0.70;;;;;;;3.43;100.00;95706.06;5097917;28;20894;-75
2021/12/01 02:53:20;;;;;;;0.80;0.70;;;;;;;3.37;100.00;95705.44;5091899;28;20435;-75
2021/12/01 02:55:56;;;;;;;0.90;0.90;;;;;;;3.50;100.00;95716.91;5075184;28;20446;-74
2021/12/01 02:58:24;;;;;;;1.93;1.00;;;;;;;3.60;100.00;95724.50;5093638;28;20431;-74
2021/12/01 03:00:53;;;;;;;0.87;0.80;;;;;;;3.55;100.00;95738.47;5075518;28;20964;-74
2021/12/01 03:03:22;;;;;;;0.63;0.63;;;;;;;3.47;100.00;95723.50;5093698;28;20408;-74
2021/12/01 03:05:51;;;;;;;0.80;0.80;;;;;;;3.37;100.00;95697.59;5075808;28;20453;-75
2021/12/01 03:08:19;;;;;;;0.70;0.70;;;;;;;3.48;100.00;95713.81;5058254;28;20498;-74
2021/12/01 03:10:52;;;;;;;1.07;0.70;;;;;;;3.53;100.00;95719.69;5091269;28;20478;-75
2021/12/01 03:13:21;;;;;;;0.70;0.70;;;;;;;3.35;100.00;95681.44;5091574;28;20443;-74
2021/12/01 03:15:48;;;;;;;0.70;0.70;;;;;;;3.45;100.00;95698.72;5091439;28;20447;-74
2021/12/01 03:18:16;;;;;;;0.70;0.60;;;;;;;3.49;100.00;95710.13;5108527;28;20443;-74
2021/12/01 03:20:46;;;;;;;0.80;0.80;;;;;;;3.50;100.00;95709.84;5091745;28;20840;-75
2021/12/01 03:23:14;;;;;;;0.80;0.80;;;;;;;3.36;100.00;95698.66;5091469;28;20575;-74
2021/12/01 03:25:42;;;;;;;0.80;0.80;;;;;;;3.46;100.00;95711.47;5092962;28;20449;-73
2021/12/01 03:28:09;;;;;;;0.70;0.70;;;;;;;3.52;100.00;95706.94;5108364;28;20524;-74
2021/12/01 03:30:38;;;;;;;0.73;0.73;;;;;;;3.40;100.00;95689.16;5093024;28;21004;-74
2021/12/01 03:33:10;;;;;;;1.27;1.17;;;;;;;3.54;100.00;95696.94;5092764;28;20804;-74
2021/12/01 03:35:39;;;;;;;1.30;1.20;;;;;;;3.45;100.00;95696.88;5092935;28;20423;-74
2021/12/01 03:38:07;;;;;;;1.13;0.97;;;;;;;3.44;100.00;95681.50;5091410;28;20424;-74
2021/12/01 03:40:34;;;;;;;1.30;1.20;;;;;;;3.54;100.00;95695.09;5091110;28;20427;-74
2021/12/01 03:43:02;;;;;;;1.40;1.30;;;;;;;3.52;100.00;95680.78;5091163;28;20864;-74
2021/12/01 03:45:29;;;;;;;0.87;0.87;;;;;;;3.41;100.00;95659.34;5091217;28;20435;-74
2021/12/01 03:47:56;;;;;;;1.50;1.00;;;;;;;3.39;100.00;95658.88;5092786;28;20463;-74
2021/12/01 03:50:23;;;;;;;0.90;0.90;;;;;;;3.35;100.00;95654.53;5092377;28;20453;-74
2021/12/01 03:52:50;;;;;;;1.07;1.00;;;;;;;3.25;100.00;95627.56;5108109;28;20439;-74
2021/12/01 03:55:17;;;;;;;1.10;1.00;;;;;;;3.22;100.00;95628.19;5091212;28;20930;-74
2021/12/01 03:57:44;;;;;;;0.83;0.83;;;;;;;3.55;100.00;95667.91;5074540;28;21243;-74
2021/12/01 04:00:16;;;;;;;1.30;1.20;;;;;;;3.59;100.00;95675.91;5092692;28;21351;-74
2021/12/01 04:02:44;;;;;;;0.90;0.90;;;;;;;3.38;100.00;95644.28;5090663;28;20461;-75
2021/12/01 04:05:12;;;;;;;1.73;1.00;;;;;;;3.29;100.00;95627.75;5090979;28;21053;-74
2021/12/01 04:07:39;;;;;;;0.83;0.83;;;;;;;3.50;100.00;95651.56;5073984;28;21021;-74
2021/12/01 04:10:11;;;;;;;1.10;1.00;;;;;;;2.96;100.00;95567.16;5107649;28;20443;-74
2021/12/01 04:12:38;;;;;;;1.60;1.50;;;;;;;3.25;100.00;95609.28;5091132;28;20528;-74
2021/12/01 04:15:05;;;;;;;1.47;1.30;;;;;;;3.41;100.00;95635.84;5073818;28;21235;-74
2021/12/01 04:17:32;;;;;;;1.40;1.30;;;;;;;3.21;100.00;95608.34;5074399;28;20440;-74
2021/12/01 04:19:59;;;;;;;1.63;1.53;;;;;;;3.42;100.00;95634.00;5090891;28;20439;-74
2021/12/01 04:22:26;;;;;;;1.10;1.03;;;;;;;3.37;100.00;95616.59;5074325;28;20628;-74
2021/12/01 04:24:53;;;;;;;3.10;2.80;;;;;;;3.48;100.00;95633.59;5091412;28;20435;-74
2021/12/01 04:27:20;;;;;;;10.80;7.17;;;;;;;3.40;100.00;95621.22;5107847;28;20439;-74
2021/12/01 04:29:46;;;;;;;2.70;1.80;;;;;;;3.26;100.00;95604.84;5074755;28;21250;-74
2021/12/01 04:32:14;;;;;;;1.90;1.80;;;;;;;3.46;100.00;95627.84;5074080;28;20973;-74
2021/12/01 04:34:40;;;;;;;2.37;2.17;;;;;;;3.28;100.00;95602.69;5074456;28;20446;-74
2021/12/01 04:37:08;;;;;;;2.00;1.90;;;;;;;3.47;100.00;95631.25;5075766;28;20440;-76
2021/12/01 04:39:34;;;;;;;1.73;1.63;;;;;;;3.20;100.00;95583.28;5093745;28;20979;-75
2021/12/01 04:42:05;;;;;;;2.27;2.17;;;;;;;3.26;100.00;95599.63;5092933;28;20455;-75
2021/12/01 04:44:34;;;;;;;1.80;1.70;;;;;;;3.40;100.00;95623.84;5093239;28;20504;-76
2021/12/01 04:47:04;;;;;;;1.60;1.50;;;;;;;3.46;100.00;95617.41;5111898;28;20462;-76
2021/12/01 04:49:32;;;;;;;1.40;1.30;;;;;;;3.41;100.00;95612.31;5105610;28;20484;-74
2021/12/01 04:52:00;;;;;;;1.50;1.40;;;;;;;3.44;100.00;95622.16;5112587;28;20469;-74
2021/12/01 04:54:27;;;;;;;1.50;1.40;;;;;;;3.18;100.00;95574.19;5094624;28;20443;-75
2021/12/01 04:56:54;;;;;;;1.73;1.63;;;;;;;3.37;100.00;95603.53;5093277;28;20439;-75
2021/12/01 04:59:22;;;;;;;2.10;2.00;;;;;;;3.15;100.00;95556.53;5110892;28;20973;-75
2021/12/01 05:01:52;;;;;;;2.63;2.00;;;;;;;3.32;100.00;95576.75;5092134;28;20459;-76
2021/12/01 05:04:20;;;;;;;2.47;2.10;;;;;;;3.08;100.00;95535.28;5091923;28;20415;-75
2021/12/01 05:06:47;;;;;;;2.57;2.00;;;;;;;3.21;100.00;95565.78;5074761;28;20435;-76
2021/12/01 05:09:14;;;;;;;3.20;2.90;;;;;;;3.16;100.00;95550.22;5074054;28;20463;-75
2021/12/01 05:11:43;;;;;;;2.93;2.70;;;;;;;3.42;100.00;95586.97;5092446;28;20468;-75
2021/12/01 05:14:11;;;;;;;4.37;2.17;;;;;;;3.40;100.00;95576.81;5092197;28;20527;-75
2021/12/01 05:16:40;;;;;;;1.60;1.40;;;;;;;3.06;100.00;95529.56;5080484;28;20853;-75
2021/12/01 05:19:08;;;;;;;1.57;1.40;;;;;;;3.41;100.00;95572.34;5112441;28;20424;-75
2021/12/01 05:21:35;;;;;;;1.50;1.40;;;;;;;3.41;100.00;95567.91;5096535;28;20455;-75
2021/12/01 05:24:02;;;;;;;1.87;1.77;;;;;;;3.43;100.00;95565.00;5095727;28;20431;-75
2021/12/01 05:26:30;;;;;;;1.87;1.77;;;;;;;3.28;100.00;95531.41;5078875;28;20504;-75
2021/12/01 05:28:57;;;;;;;2.00;1.30;;;;;;;3.26;100.00;95522.03;5095006;28;20474;-75
2021/12/01 05:31:44;;;;;;;1.50;1.40;;;;;;;3.26;100.00;95516.03;5094954;28;20466;-75
2021/12/01 05:34:10;;;;;;;1.70;1.60;;;;;;;3.46;100.00;95533.81;4997737;28;20907;-75
2021/12/01 05:36:37;;;;;;;2.07;1.83;;;;;;;3.37;100.00;95514.72;5014203;28;20435;-75
2021/12/01 05:39:04;;;;;;;1.90;1.80;;;;;;;3.43;100.00;95526.56;5014205;28;20471;-75
2021/12/01 05:41:31;;;;;;;1.57;1.47;;;;;;;3.35;100.00;95516.88;4997652;28;20532;-75
2021/12/01 05:44:01;;;;;;;2.20;2.03;;;;;;;3.33;100.00;95503.31;5013558;28;20446;-75
2021/12/01 05:46:32;;;;;;;2.10;1.67;;;;;;;3.55;100.00;95541.69;5013924;28;20863;-75
2021/12/01 05:48:59;;;;;;;2.30;2.20;;;;;;;3.54;100.00;95525.25;4997613;28;20553;-75
2021/12/01 05:51:26;;;;;;;1.77;1.67;;;;;;;3.29;100.00;95488.53;5013619;28;20466;-75
2021/12/01 05:53:53;;;;;;;4.00;2.43;;;;;;;3.40;100.00;95495.81;4997344;28;20439;-75
2021/12/01 05:56:22;;;;;;;3.60;3.30;;;;;;;3.53;100.00;95522.94;5013585;28;20442;-75
2021/12/01 05:58:49;;;;;;;30.47;13.60;;;;;;;3.59;100.00;95521.72;4996772;28;20439;-75
2021/12/01 06:01:16;;;;;;;18.73;11.40;;;;;;;3.38;100.00;95495.34;5013009;28;20493;-75
2021/12/01 06:03:43;;;;;;;6.60;3.83;;;;;;;3.52;100.00;95495.25;4996948;28;20497;-75
2021/12/01 06:06:11;;;;;;;33.20;17.97;;;;;;;3.41;100.00;95488.75;4996908;28;20447;-75
2021/12/01 06:08:37;;;;;;;27.87;12.20;;;;;;;3.53;100.00;95509.88;5012952;28;20622;-75
2021/12/01 06:11:05;;;;;;;18.27;16.57;;;;;;;3.53;100.00;95489.72;5036876;28;20463;-75
2021/12/01 06:13:32;;;;;;;20.73;13.93;;;;;;;3.35;100.00;95469.84;5094194;28;21029;-75
2021/12/01 06:15:59;;;;;;;16.77;12.00;;;;;;;3.35;100.00;95456.78;5111058;28;20447;-75
2021/12/01 06:18:26;;;;;;;32.20;15.43;;;;;;;3.68;100.00;95496.41;5094236;28;20432;-75
2021/12/01 06:20:53;;;;;;;3.00;2.20;;;;;;;3.52;100.00;95475.13;5094056;28;20489;-75
2021/12/01 06:23:23;;;;;;;35.90;24.57;;;;;;;3.75;100.00;95506.44;5094145;28;20435;-75
2021/12/01 06:25:50;;;;;;;4.87;3.30;;;;;;;3.75;100.00;95495.97;5109673;28;20447;-75
2021/12/01 06:28:17;;;;;;;2.57;2.37;;;;;;;3.52;100.00;95456.06;5077089;28;20467;-75
2021/12/01 06:30:44;;;;;;;5.00;2.07;;;;;;;3.77;100.00;95491.97;5077228;28;21200;-75
2021/12/01 06:33:11;;;;;;;3.00;2.80;;;;;;;3.78;100.00;95482.28;5076786;28;20447;-75
2021/12/01 06:35:38;;;;;;;3.20;3.00;;;;;;;3.60;100.00;95444.84;5097116;28;20426;-77
2021/12/01 06:38:05;;;;;;;3.00;2.80;;;;;;;3.81;100.00;95466.75;5096719;28;20451;-77
2021/12/01 06:40:32;;;;;;;3.00;2.80;;;;;;;3.70;100.00;95449.03;5094803;28;20489;-75
2021/12/01 06:42:59;;;;;;;1.70;1.60;;;;;;;3.76;100.00;95448.63;5093875;28;20439;-75
2021/12/01 06:45:26;;;;;;;2.60;2.40;;;;;;;3.75;100.00;95441.09;5095588;28;20438;-76
2021/12/01 06:47:55;;;;;;;2.60;2.40;;;;;;;3.63;100.00;95428.59;5111054;28;20539;-75
2021/12/01 06:50:23;;;;;;;3.67;3.47;;;;;;;3.79;100.00;95429.72;5076678;28;20435;-75
2021/12/01 06:52:49;;;;;;;6.50;5.93;;;;;;;3.89;100.00;95456.66;5076914;28;20435;-75
2021/12/01 06:55:16;;;;;;;3.67;3.37;;;;;;;3.91;100.00;95455.25;5093181;28;20431;-75
2021/12/01 06:57:43;;;;;;;2.10;2.00;;;;;;;3.92;100.00;95451.56;5096191;28;20463;-75
2021/12/01 07:00:12;;;;;;;6.30;3.10;;;;;;;3.95;100.00;95447.56;5094405;28;20929;-75
2021/12/01 07:02:39;;;;;;;2.00;1.83;;;;;;;3.84;100.00;95434.00;5093312;28;20463;-75
2021/12/01 07:05:08;;;;;;;2.07;1.97;;;;;;;3.77;100.00;95424.00;5076014;28;20438;-75
2021/12/01 07:07:36;;;;;;;3.87;3.47;;;;;;;3.95;100.00;95437.13;5076381;28;20443;-75
2021/12/01 07:10:05;;;;;;;3.50;2.83;;;;;;;3.99;100.00;95444.03;5075631;28;20466;-75
2021/12/01 07:12:32;;;;;;;3.73;3.43;;;;;;;3.90;100.00;95419.72;5075362;28;20455;-75
2021/12/01 07:14:59;;;;;;;4.80;4.40;;;;;;;4.06;100.00;95440.97;5093160;28;21085;-75
2021/12/01 07:17:25;;;;;;;7.30;2.40;;;;;;;3.61;100.00;95362.03;5092823;28;20434;-75
2021/12/01 07:19:52;;;;;;;3.57;2.20;;;;;;;3.63;100.00;95350.19;5092640;28;20435;-75
2021/12/01 07:22:19;;;;;;;4.67;3.90;;;;;;;4.01;100.00;95422.84;5093750;28;20539;-75
2021/12/01 07:24:46;;;;;;;2.97;2.77;;;;;;;4.13;100.00;95422.97;5092360;28;20938;-75
2021/12/01 07:27:14;;;;;;;3.10;2.90;;;;;;;4.14;100.00;95422.69;5075583;28;20961;-75
2021/12/01 07:29:42;;;;;;;3.20;2.37;;;;;;;4.15;100.00;95416.38;5091992;28;20471;-75
2021/12/01 07:32:10;;;;;;;2.47;2.13;;;;;;;4.18;100.00;95407.16;5092066;28;20520;-75
2021/12/01 07:34:42;;;;;;;2.20;2.10;;;;;;;4.12;100.00;95403.88;5093923;28;20435;-75
2021/12/01 07:37:15;;;;;;;2.70;1.97;;;;;;;4.05;100.00;95387.91;5092268;28;20416;-75
2021/12/01 07:39:43;;;;;;;2.07;1.93;;;;;;;4.17;100.00;95399.59;5092484;28;20439;-75
2021/12/01 07:42:11;;;;;;;3.07;2.70;;;;;;;4.24;100.00;95407.75;5093271;28;20496;-75
2021/12/01 07:44:38;;;;;;;1.33;1.23;;;;;;;4.27;100.00;95412.34;5091907;28;20435;-75
2021/12/01 07:47:05;;;;;;;2.67;2.33;;;;;;;4.27;100.00;95420.97;5092534;28;20997;-75
2021/12/01 07:49:32;;;;;;;3.00;2.80;;;;;;;4.06;100.00;95399.13;5091915;28;20471;-75
2021/12/01 07:52:03;;;;;;;3.03;2.80;;;;;;;4.19;100.00;95413.16;5091881;28;20482;-75
2021/12/01 07:54:30;;;;;;;6.77;6.20;;;;;;;4.02;100.00;95396.38;5075444;28;20809;-76
2021/12/01 07:56:57;;;;;;;3.23;3.00;;;;;;;4.03;100.00;95397.13;5093598;28;20500;-75
2021/12/01 07:59:24;;;;;;;7.53;5.90;;;;;;;3.95;100.00;95382.97;5092955;28;20496;-76
2021/12/01 08:01:51;;;;;;;3.07;2.77;;;;;;;4.08;100.00;95394.38;5077665;28;20459;-76
2021/12/01 08:04:18;;;;;;;4.03;3.10;;;;;;;3.99;100.00;95385.72;5077529;28;20439;-75
2021/12/01 08:06:44;;;;;;;2.87;2.57;;;;;;;3.97;100.00;95380.03;5079266;28;20439;-75
2021/12/01 08:09:11;;;;;;;3.20;1.97;;;;;;;4.23;100.00;95414.06;5106217;28;20459;-76
2021/12/01 08:11:39;;;;;;;3.27;2.17;;;;;;;4.24;100.00;95405.91;5081184;28;20467;-78
2021/12/01 08:14:06;;;;;;;2.87;2.03;;;;;;;4.25;100.00;95396.97;5093860;28;20431;-75
2021/12/01 08:16:35;;;;;;;2.53;2.33;;;;;;;4.12;100.00;95382.97;5075408;28;20431;-76
2021/12/01 08:19:02;;;;;;;2.00;1.80;;;;;;;4.06;100.00;95358.06;5075240;28;20435;-76
2021/12/01 08:21:30;;;;;;;1.70;1.60;;;;;;;4.29;100.00;95384.84;5084081;28;20470;-76
2021/12/01 08:24:08;;;;;;;1.60;1.50;;;;;;;4.31;100.00;95374.81;5099940;28;20461;-76
2021/12/01 08:26:37;;;;;;;2.13;2.03;;;;;;;4.32;100.00;95378.22;5082298;28;20451;-76
2021/12/01 08:29:03;;;;;;;2.67;2.47;;;;;;;4.29;100.00;95361.28;5082416;28;20463;-76
2021/12/01 08:31:30;;;;;;;2.20;2.00;;;;;;;4.35;100.00;95364.50;5098872;28;20458;-76
2021/12/01 08:34:00;;;;;;;1.83;1.70;;;;;;;4.29;100.00;95344.81;5080618;28;20470;-76
2021/12/01 08:36:27;;;;;;;4.10;2.17;;;;;;;4.39;100.00;95352.34;5081107;28;20447;-75
2021/12/01 08:38:54;;;;;;;1.80;1.60;;;;;;;4.41;100.00;95337.13;5098533;28;20436;-74
2021/12/01 08:41:21;;;;;;;2.00;1.80;;;;;;;4.33;100.00;95324.81;5080482;28;20459;-74
2021/12/01 08:43:48;;;;;;;2.37;2.27;;;;;;;4.41;100.00;95326.66;5077954;28;20506;-75
2021/12/01 08:46:16;;;;;;;2.80;2.60;;;;;;;4.51;100.00;95322.91;5094508;28;20815;-75
2021/12/01 08:48:43;;;;;;;3.80;3.50;;;;;;;4.42;100.00;95297.56;5078267;28;20458;-75
2021/12/01 08:51:10;;;;;;;3.10;2.40;;;;;;;4.57;100.00;95319.06;5098470;28;20463;-75
2021/12/01 08:53:41;;;;;;;2.60;2.40;;;;;;;4.60;100.00;95310.56;5082249;28;20427;-75
2021/12/01 08:56:10;;;;;;;3.40;2.67;;;;;;;4.51;100.00;95278.41;5081589;28;20435;-75
2021/12/01 08:58:37;;;;;;;3.23;2.40;;;;;;;4.58;100.00;95281.34;5099339;28;20448;-75
2021/12/01 09:01:04;;;;;;;2.33;2.13;;;;;;;4.68;100.00;95294.09;5098855;28;20493;-76
2021/12/01 09:03:32;;;;;;;3.50;2.10;;;;;;;4.71;100.00;95289.00;5084545;28;20450;-77
2021/12/01 09:05:59;;;;;;;4.50;2.87;;;;;;;4.80;100.00;95296.03;5085212;28;20431;-77
2021/12/01 09:08:26;;;;;;;10.60;5.10;;;;;;;4.59;100.00;95256.69;5084419;28;20439;-77
2021/12/01 09:10:56;;;;;;;4.40;1.97;;;;;;;4.81;100.00;95290.50;5101945;28;20459;-77
2021/12/01 09:13:25;;;;;;;7.80;2.60;;;;;;;4.79;100.00;95270.94;5082991;28;20465;-76
2021/12/01 09:15:53;;;;;;;2.50;2.30;;;;;;;4.85;100.00;95278.31;5099341;28;20438;-76
2021/12/01 09:18:21;;;;;;;10.63;3.10;;;;;;;4.87;100.00;95275.38;5100072;28;20829;-76
2021/12/01 09:20:47;;;;;;;3.67;1.67;;;;;;;4.68;100.00;95233.88;5099784;28;20459;-77
2021/12/01 09:23:15;;;;;;;2.70;2.50;;;;;;;4.88;100.00;95255.94;5099457;28;20923;-77
2021/12/01 09:25:44;;;;;;;3.43;1.90;;;;;;;4.72;100.00;95219.84;5100988;28;20470;-76
2021/12/01 09:28:25;;;;;;;3.47;2.27;;;;;;;5.00;100.00;95237.72;5096615;28;20524;-77
2021/12/01 09:30:54;;;;;;;2.90;1.87;;;;;;;4.82;100.00;95203.00;5098131;28;20442;-77
2021/12/01 09:33:21;;;;;;;4.33;2.40;;;;;;;4.80;100.00;95178.97;5096389;28;20438;-77
2021/12/01 09:35:51;;;;;;;2.63;1.67;;;;;;;5.19;100.00;95239.91;5079612;28;20860;-76
2021/12/01 09:38:19;;;;;;;1.80;1.37;;;;;;;4.99;100.00;95202.13;5096386;28;20470;-77
2021/12/01 09:40:51;;;;;;;2.00;1.80;;;;;;;5.24;100.00;95226.63;5079131;28;21089;-77
2021/12/01 09:43:25;;;;;;;14.80;4.00;;;;;;;5.26;100.00;95217.38;5079127;28;20427;-76
2021/12/01 09:45:54;;;;;;;9.37;4.83;;;;;;;5.24;100.00;95209.06;5094011;28;20454;-77
2021/12/01 09:48:22;;;;;;;2.87;2.30;;;;;;;5.22;100.00;95210.47;5094395;28;20539;-76
2021/12/01 09:51:11;;;;;;;10.13;2.97;;;;;;;5.01;100.00;95171.16;5093780;28;20498;-77
2021/12/01 09:53:38;;;;;;;3.77;1.80;;;;;;;5.31;100.00;95209.31;5093856;28;20451;-77
2021/12/01 09:56:05;;;;;;;2.00;1.77;;;;;;;5.15;100.00;95182.16;5093751;28;20443;-77
2021/12/01 09:58:35;;;;;;;4.90;1.83;;;;;;;5.27;100.00;95197.94;5094956;28;20435;-76
2021/12/01 10:01:14;;;;;;;1.53;1.43;;;;;;;5.26;100.00;95188.53;5093198;28;20532;-77
2021/12/01 10:03:41;;;;;;;3.37;2.30;;;;;;;5.22;100.00;95181.66;5095156;28;20454;-77
2021/12/01 10:06:13;;;;;;;1.63;1.53;;;;;;;5.28;100.00;95181.13;5096922;28;20423;-76
2021/12/01 10:08:43;;;;;;;1.80;1.70;;;;;;;5.25;100.00;95184.38;5099726;28;20835;-77
2021/12/01 10:11:20;;;;;;;1.37;1.27;;;;;;;5.26;100.00;95177.28;5060107;28;20494;-77
2021/12/01 10:14:14;;;;;;;7.40;2.17;;;;;;;5.29;100.00;95166.16;5076309;28;20435;-76
2021/12/01 10:16:43;;;;;;;3.47;1.73;;;;;;;5.12;100.00;95140.09;5059866;28;20438;-77
2021/12/01 10:19:12;;;;;;;2.47;1.40;;;;;;;5.15;100.00;95137.59;5077151;28;20438;-77
2021/12/01 10:21:43;;;;;;;1.47;1.37;;;;;;;5.31;100.00;95143.78;5093809;28;20554;-77
2021/12/01 10:24:13;;;;;;;1.90;1.37;;;;;;;5.23;100.00;95109.81;5076573;28;20436;-76
2021/12/01 10:26:43;;;;;;;4.57;2.67;;;;;;;5.24;100.00;95101.63;5076741;28;20938;-77
2021/12/01 10:29:16;;;;;;;2.20;2.10;;;;;;;5.18;100.00;95092.44;5094558;28;20455;-77
2021/12/01 10:31:54;;;;;;;2.57;2.37;;;;;;;5.28;100.00;95086.78;5077199;28;20447;-77
2021/12/01 10:34:30;;;;;;;1.57;1.47;;;;;;;5.51;100.00;95118.66;5095055;28;20426;-77
2021/12/01 10:37:14;;;;;;;1.70;1.60;;;;;;;5.49;100.00;95104.34;5079051;28;20484;-77
2021/12/01 10:40:08;;;;;;;3.07;2.30;;;;;;;5.48;100.00;95098.34;5101354;28;20400;-75
2021/12/01 10:43:01;;;;;;;2.13;2.03;;;;;;;5.51;100.00;95095.06;5118691;28;20453;-74
2021/12/01 10:45:35;;;;;;;1.43;1.33;;;;;;;5.19;100.00;95043.41;5108059;28;20435;-77
2021/12/01 10:48:04;;;;;;;2.07;1.87;;;;;;;5.38;100.00;95061.28;5060072;28;20489;-76
2021/12/01 10:50:34;;;;;;;4.07;2.23;;;;;;;5.29;100.00;95043.78;5076474;28;20455;-76
2021/12/01 10:53:23;;;;;;;1.97;1.87;;;;;;;5.63;100.00;95073.34;5092949;28;20548;-77
2021/12/01 10:55:53;;;;;;;1.53;1.30;;;;;;;5.66;100.00;95077.94;5076275;28;20436;-77
2021/12/01 10:58:31;;;;;;;1.30;1.20;;;;;;;5.68;100.00;95078.38;5075935;28;20435;-77
2021/12/01 11:01:00;;;;;;;2.07;1.10;;;;;;;5.69;100.00;95072.03;5076354;28;20825;-76
2021/12/01 11:03:30;;;;;;;2.07;1.60;;;;;;;5.69;100.00;95066.03;5076714;28;20919;-76
2021/12/01 11:06:09;;;;;;;13.53;9.23;;;;;;;5.64;100.00;95065.16;5076024;28;20447;-76
2021/12/01 11:08:38;;;;;;;22.97;12.97;;;;;;;5.63;100.00;95068.13;5076012;28;20439;-76
2021/12/01 11:11:17;;;;;;;15.97;10.00;;;;;;;5.54;100.00;95038.59;5092630;28;20581;-76
2021/12/01 11:14:14;;;;;;;6.20;5.60;;;;;;;5.77;100.00;95050.22;5093783;28;20530;-76
2021/12/01 11:16:43;;;;;;;2.73;2.53;;;;;;;5.86;100.00;95050.88;5093824;28;20412;-76
2021/12/01 11:19:12;;;;;;;5.07;2.10;;;;;;;5.76;100.00;95027.72;5059867;28;20805;-76
2021/12/01 11:21:39;;;;;;;4.97;4.57;;;;;;;5.80;100.00;95015.47;5093966;28;20451;-77
2021/12/01 11:24:09;;;;;;;2.73;2.53;;;;;;;5.95;100.00;95019.31;5075463;28;20493;-76
2021/12/01 11:26:37;;;;;;;2.73;2.53;;;;;;;5.95;100.00;95018.56;5093664;28;20424;-77
2021/12/01 11:29:18;;;;;;;2.47;2.27;;;;;;;5.89;100.00;95002.25;5075760;28;20974;-76
2021/12/01 11:31:46;;;;;;;2.73;2.53;;;;;;;6.09;100.00;95008.50;5075468;28;20459;-76
2021/12/01 11:34:16;;;;;;;3.00;2.70;;;;;;;6.17;100.00;94995.25;5075652;28;20442;-77
2021/12/01 11:36:49;;;;;;;2.67;2.47;;;;;;;6.21;100.00;94990.13;5075501;28;20634;-77
2021/12/01 11:39:23;;;;;;;2.33;2.17;;;;;;;6.13;100.00;94977.88;5075522;28;20431;-77
2021/12/01 11:41:52;;;;;;;3.03;2.73;;;;;;;6.13;100.00;94972.63;5058697;28;20447;-76
2021/12/01 11:44:20;;;;;;;1.70;1.60;;;;;;;5.88;100.00;94937.78;5075701;28;20427;-76
2021/12/01 11:46:48;;;;;;;7.30;3.10;;;;;;;6.09;100.00;94966.50;5059203;28;20485;-76
2021/12/01 11:49:17;;;;;;;2.00;1.80;;;;;;;5.89;100.00;94942.69;5058545;28;20934;-76